バンコク/スワンナプーム の空港の天気 - METARとTAF

スワンナプーム国際空港 ( VTBS / BKK ) - タイ サムットプラーカーン県 (バンコク近郊)
飛行場実況気象(Metar)
観測時間11/22 19:30 ICT (11/22 12:30 UTC)
風向・風速北 3m/s
視程10km以上
天気現象
少しの雲 雲底高度 610m
全天の8割程度の雲 雲底高度 3050m
気温28℃
湿度70%
気圧1010hPa
METARVTBS 221230Z 36006KT 9999 FEW020CB BKN100 28/22 Q1010 NOSIG
過去の天気等 Google飛行場航空写真 Wunderground天気予報

過去48時間のMETAR

飛行場予報(TAF)
発表時間: 11/22 18:00 ICT (11/22 11:00 UTC)
予報対象時間: 22日19時 ICT ~ 24日1時 ICT
風向・風速東 4m/s
視程10km以上
少しの雲 雲底高度 760m
全天の4割程度の雲 雲底高度 1,220m
22日21時 ICT ~ 22日23時 ICT に徐々に
風向・風速北北東 3m/s
少しの雲 雲底高度 910m
23日8時 ICT ~ 23日10時 ICT に徐々に
風向・風速東 5m/s
23日21時 ICT ~ 23日23時 ICT に徐々に
風向・風速北北東 4m/s
TAF VTBS 221100Z 2212/2318 08008KT 9999 FEW025 SCT040
BECMG 2214/2216 02005KT FEW030
BECMG 2301/2303 08010KT
BECMG 2314/2316 02008KT